createdAt,value
2018-09-10T00:00:24.933Z,984.60
2018-09-10T00:01:24.852Z,984.61
2018-09-10T00:02:24.776Z,984.64
2018-09-10T00:03:24.708Z,984.63
2018-09-10T00:04:24.622Z,984.64
2018-09-10T00:05:24.550Z,984.63
2018-09-10T00:06:24.473Z,984.64
2018-09-10T00:07:24.400Z,984.66
2018-09-10T00:08:24.320Z,984.65
2018-09-10T00:09:24.254Z,984.67
2018-09-10T00:10:24.166Z,984.64
2018-09-10T00:11:24.089Z,984.64
2018-09-10T00:12:24.014Z,984.67
2018-09-10T00:13:23.941Z,984.62
2018-09-10T00:14:23.862Z,984.64
2018-09-10T00:15:23.789Z,984.62
2018-09-10T00:16:23.714Z,984.59
2018-09-10T00:17:23.648Z,984.61
2018-09-10T00:18:23.553Z,984.59
2018-09-10T00:19:23.481Z,984.61
2018-09-10T00:20:23.405Z,984.59
2018-09-10T00:21:23.329Z,984.60
2018-09-10T00:22:23.254Z,984.58
2018-09-10T00:23:23.174Z,984.59
2018-09-10T00:24:23.198Z,984.61
2018-09-10T00:25:23.024Z,984.60
2018-09-10T00:26:22.944Z,984.59
2018-09-10T00:27:22.869Z,984.59
2018-09-10T00:28:22.795Z,984.60
2018-09-10T00:29:22.719Z,984.58
2018-09-10T00:30:22.639Z,984.59
2018-09-10T00:31:22.563Z,984.56
2018-09-10T00:32:22.490Z,984.57
2018-09-10T00:33:22.409Z,984.59
2018-09-10T00:34:22.333Z,984.59
2018-09-10T00:35:22.255Z,984.58
2018-09-10T00:36:22.197Z,984.60
2018-09-10T00:37:22.108Z,984.60
2018-09-10T00:38:22.037Z,984.63
2018-09-10T00:39:21.954Z,984.65
2018-09-10T00:40:21.880Z,984.63
2018-09-10T00:41:21.804Z,984.62
2018-09-10T00:42:21.723Z,984.64
2018-09-10T00:43:21.646Z,984.67
2018-09-10T00:44:21.568Z,984.64
2018-09-10T00:45:21.505Z,984.63
2018-09-10T00:46:21.416Z,984.64
2018-09-10T00:47:21.348Z,984.63
2018-09-10T00:48:21.268Z,984.64
2018-09-10T00:49:21.192Z,984.61
2018-09-10T00:50:21.113Z,984.65
2018-09-10T00:51:21.037Z,984.64
2018-09-10T00:52:20.961Z,984.63
2018-09-10T00:53:20.881Z,984.68
2018-09-10T00:54:20.805Z,984.69
2018-09-10T00:55:20.727Z,984.68
2018-09-10T00:56:20.651Z,984.67
2018-09-10T00:57:20.576Z,984.72
2018-09-10T00:58:20.500Z,984.70
2018-09-10T00:59:20.428Z,984.71
2018-09-10T01:00:20.350Z,984.70
2018-09-10T01:01:20.274Z,984.70
2018-09-10T01:02:20.194Z,984.68
2018-09-10T01:03:20.117Z,984.69
2018-09-10T01:04:20.040Z,984.68
2018-09-10T01:05:19.971Z,984.65
2018-09-10T01:06:19.891Z,984.67
2018-09-10T01:07:19.808Z,984.68
2018-09-10T01:08:19.734Z,984.67
2018-09-10T01:09:19.664Z,984.70
2018-09-10T01:10:19.581Z,984.69
2018-09-10T01:11:19.511Z,984.71
2018-09-10T01:12:19.433Z,984.69
2018-09-10T01:13:19.360Z,984.66
2018-09-10T01:14:19.282Z,984.66
2018-09-10T01:15:19.200Z,984.67
2018-09-10T01:16:19.120Z,984.63
2018-09-10T01:17:19.045Z,984.62
2018-09-10T01:18:18.967Z,984.61
2018-09-10T01:19:18.910Z,984.57
2018-09-10T01:20:18.815Z,984.60
2018-09-10T01:21:18.744Z,984.58
2018-09-10T01:22:18.662Z,984.57
2018-09-10T01:23:18.584Z,984.53
2018-09-10T01:24:18.505Z,984.55
2018-09-10T01:25:18.430Z,984.52
2018-09-10T01:26:18.353Z,984.52
2018-09-10T01:27:18.275Z,984.53
2018-09-10T01:28:18.200Z,984.50
2018-09-10T01:29:18.123Z,984.52
2018-09-10T01:30:18.048Z,984.47
2018-09-10T01:31:17.969Z,984.48
2018-09-10T01:32:17.898Z,984.47
2018-09-10T01:33:17.816Z,984.47
2018-09-10T01:34:17.739Z,984.44
2018-09-10T01:35:17.662Z,984.48
2018-09-10T01:36:17.596Z,984.49
2018-09-10T01:37:17.512Z,984.44
2018-09-10T01:38:17.434Z,984.44
2018-09-10T01:39:17.355Z,984.45
2018-09-10T01:40:17.283Z,984.45
2018-09-10T01:41:17.204Z,984.48
2018-09-10T01:42:17.129Z,984.50
2018-09-10T01:43:17.057Z,984.53
2018-09-10T01:44:16.972Z,984.52
2018-09-10T01:45:16.896Z,984.59
2018-09-10T01:46:24.471Z,984.61
2018-09-10T01:48:21.172Z,984.64
2018-09-10T01:49:21.047Z,984.65
2018-09-10T01:50:20.970Z,984.65
2018-09-10T01:51:20.896Z,984.63
2018-09-10T01:52:20.817Z,984.64
2018-09-10T01:53:20.739Z,984.64
2018-09-10T01:54:20.662Z,984.62
2018-09-10T01:55:20.596Z,984.61
2018-09-10T01:56:20.510Z,984.60
2018-09-10T01:57:20.431Z,984.64
2018-09-10T01:58:20.356Z,984.59
2018-09-10T01:59:20.281Z,984.61
2018-09-10T02:00:20.204Z,984.58
2018-09-10T02:01:20.128Z,984.56
2018-09-10T02:02:20.049Z,984.57
2018-09-10T02:03:19.970Z,984.58
2018-09-10T02:04:19.904Z,984.56
2018-09-10T02:05:19.822Z,984.58
2018-09-10T02:06:19.742Z,984.57
2018-09-10T02:07:19.664Z,984.57
2018-09-10T02:08:19.587Z,984.61
2018-09-10T02:09:19.513Z,984.56
2018-09-10T02:10:19.432Z,984.58
2018-09-10T02:11:19.355Z,984.57
2018-09-10T02:12:19.278Z,984.61
2018-09-10T02:13:19.201Z,984.61
2018-09-10T02:14:19.125Z,984.63
2018-09-10T02:15:19.049Z,984.61
2018-09-10T02:16:18.971Z,984.56
2018-09-10T02:17:18.892Z,984.59
2018-09-10T02:18:18.816Z,984.56
2018-09-10T02:19:18.739Z,984.55
2018-09-10T02:20:18.694Z,984.54
2018-09-10T02:21:18.583Z,984.49
2018-09-10T02:22:18.507Z,984.47
2018-09-10T02:23:18.432Z,984.50
2018-09-10T02:24:18.354Z,984.44
2018-09-10T02:25:18.276Z,984.46
2018-09-10T02:26:18.199Z,984.40
2018-09-10T02:27:18.133Z,984.41
2018-09-10T02:28:18.043Z,984.42
2018-09-10T02:29:18.011Z,984.44
2018-09-10T02:30:17.890Z,984.47
2018-09-10T02:31:17.835Z,984.44
2018-09-10T02:32:17.735Z,984.47
2018-09-10T02:33:17.657Z,984.47
2018-09-10T02:34:17.600Z,984.47
2018-09-10T02:35:17.503Z,984.46
2018-09-10T02:36:17.430Z,984.45
2018-09-10T02:37:17.356Z,984.45
2018-09-10T02:38:17.275Z,984.43
2018-09-10T02:39:17.195Z,984.42
2018-09-10T02:40:17.121Z,984.43
2018-09-10T02:41:17.041Z,984.46
2018-09-10T02:42:16.964Z,984.46
2018-09-10T02:43:16.887Z,984.45
2018-09-10T02:44:16.809Z,984.45
2018-09-10T02:45:16.737Z,984.48
2018-09-10T02:46:16.657Z,984.46
2018-09-10T02:47:16.577Z,984.44
2018-09-10T02:48:16.501Z,984.44
2018-09-10T02:49:16.423Z,984.47
2018-09-10T02:50:16.347Z,984.48
2018-09-10T02:51:16.269Z,984.46
2018-09-10T02:52:16.192Z,984.46
2018-09-10T02:53:16.113Z,984.47
2018-09-10T02:54:16.039Z,984.51
2018-09-10T02:55:16.103Z,984.50
2018-09-10T02:56:15.883Z,984.48
2018-09-10T02:57:15.807Z,984.47
2018-09-10T02:58:15.728Z,984.49
2018-09-10T02:59:15.652Z,984.44
2018-09-10T03:00:15.579Z,984.42
2018-09-10T03:01:15.496Z,984.42
2018-09-10T03:02:15.419Z,984.45
2018-09-10T03:03:15.343Z,984.47
2018-09-10T03:04:15.266Z,984.44
2018-09-10T03:05:15.187Z,984.43
2018-09-10T03:06:15.111Z,984.44
2018-09-10T03:07:15.033Z,984.45
2018-09-10T03:08:14.956Z,984.42
2018-09-10T03:09:14.883Z,984.43
2018-09-10T03:10:14.799Z,984.45
2018-09-10T03:11:14.724Z,984.46
2018-09-10T03:12:14.646Z,984.47
2018-09-10T03:13:14.567Z,984.46
2018-09-10T03:14:14.504Z,984.46
2018-09-10T03:15:14.416Z,984.47
2018-09-10T03:16:14.338Z,984.45
2018-09-10T03:17:14.260Z,984.45
2018-09-10T03:18:14.184Z,984.46
2018-09-10T03:19:14.105Z,984.43
2018-09-10T03:20:14.028Z,984.45
2018-09-10T03:21:13.952Z,984.42
2018-09-10T03:22:13.874Z,984.43
2018-09-10T03:23:13.796Z,984.42
2018-09-10T03:24:13.778Z,984.40
2018-09-10T03:25:13.640Z,984.41
2018-09-10T03:26:13.563Z,984.44
2018-09-10T03:27:13.485Z,984.43
2018-09-10T03:28:13.411Z,984.45
2018-09-10T03:29:13.330Z,984.47
2018-09-10T03:30:13.257Z,984.47
2018-09-10T03:31:13.178Z,984.48
2018-09-10T03:32:13.111Z,984.52
2018-09-10T03:33:13.021Z,984.54
2018-09-10T03:34:12.943Z,984.55
2018-09-10T03:35:12.865Z,984.61
2018-09-10T03:36:12.787Z,984.60
2018-09-10T03:37:12.712Z,984.58
2018-09-10T03:38:12.636Z,984.63
2018-09-10T03:39:12.555Z,984.66
2018-09-10T03:40:12.478Z,984.63
2018-09-10T03:41:12.400Z,984.65
2018-09-10T03:42:12.326Z,984.67
2018-09-10T03:43:12.245Z,984.65
2018-09-10T03:44:12.167Z,984.65
2018-09-10T03:45:12.090Z,984.62
2018-09-10T03:46:12.030Z,984.67
2018-09-10T03:47:11.945Z,984.66
2018-09-10T03:48:11.862Z,984.62
2018-09-10T03:49:11.779Z,984.66
2018-09-10T03:50:11.703Z,984.64
2018-09-10T03:51:11.625Z,984.61
2018-09-10T03:52:11.551Z,984.61
2018-09-10T03:53:11.472Z,984.63
2018-09-10T03:54:11.390Z,984.62
2018-09-10T03:55:11.314Z,984.64
2018-09-10T03:56:11.238Z,984.67
2018-09-10T03:57:11.161Z,984.70
2018-09-10T03:58:11.081Z,984.68
2018-09-10T03:59:11.005Z,984.69
2018-09-10T04:00:10.929Z,984.72
2018-09-10T04:01:10.851Z,984.66
2018-09-10T04:02:10.770Z,984.70
2018-09-10T04:03:10.697Z,984.64
2018-09-10T04:04:10.650Z,984.62
2018-09-10T04:05:10.538Z,984.68
2018-09-10T04:06:10.460Z,984.67
2018-09-10T04:07:10.382Z,984.66
2018-09-10T04:08:10.307Z,984.71
2018-09-10T04:09:10.225Z,984.71
2018-09-10T04:10:10.151Z,984.73
2018-09-10T04:11:10.075Z,984.70
2018-09-10T04:12:10.009Z,984.70
2018-09-10T04:13:09.918Z,984.67
2018-09-10T04:14:09.839Z,984.69
2018-09-10T04:15:09.761Z,984.70
2018-09-10T04:16:09.687Z,984.72
2018-09-10T04:17:09.649Z,984.77
2018-09-10T04:18:09.527Z,984.80
2018-09-10T04:19:09.450Z,984.80
2018-09-10T04:20:09.373Z,984.81
2018-09-10T04:21:09.294Z,984.82
2018-09-10T04:22:09.219Z,984.84
2018-09-10T04:23:09.138Z,984.87
2018-09-10T04:24:09.061Z,984.87
2018-09-10T04:25:08.984Z,984.92
2018-09-10T04:26:09.032Z,984.90
2018-09-10T04:27:08.829Z,984.92
2018-09-10T04:28:08.751Z,984.94
2018-09-10T04:29:08.674Z,984.94
2018-09-10T04:30:08.645Z,984.91
2018-09-10T04:31:08.529Z,984.93
2018-09-10T04:32:08.442Z,984.90
2018-09-10T04:33:08.361Z,984.88
2018-09-10T04:34:08.285Z,984.91
2018-09-10T04:35:08.207Z,984.90
2018-09-10T04:36:08.138Z,984.87
2018-09-10T04:37:08.057Z,984.87
2018-09-10T04:38:07.974Z,984.87
2018-09-10T04:39:07.900Z,984.88
2018-09-10T04:40:07.818Z,984.90
2018-09-10T04:41:07.740Z,984.92
2018-09-10T04:42:07.700Z,984.92
2018-09-10T04:43:07.588Z,984.97
2018-09-10T04:44:07.516Z,984.91
2018-09-10T04:45:07.431Z,984.98
2018-09-10T04:46:07.352Z,984.95
2018-09-10T04:47:07.276Z,984.97
2018-09-10T04:48:07.200Z,984.93
2018-09-10T04:49:07.120Z,984.95
2018-09-10T04:50:07.041Z,984.95
2018-09-10T04:51:06.964Z,984.95
2018-09-10T04:52:06.939Z,984.99
2018-09-10T04:53:06.807Z,984.92
2018-09-10T04:54:06.732Z,984.95
2018-09-10T04:55:06.649Z,984.95
2018-09-10T04:56:06.577Z,984.95
2018-09-10T04:57:06.494Z,984.98
2018-09-10T04:58:06.522Z,984.96
2018-09-10T04:59:06.351Z,984.96
2018-09-10T05:00:06.264Z,984.98
2018-09-10T05:01:06.182Z,985.01
2018-09-10T05:02:06.115Z,984.93
2018-09-10T05:03:06.028Z,984.96
2018-09-10T05:04:05.949Z,984.97
2018-09-10T05:05:05.874Z,984.98
2018-09-10T05:06:05.792Z,984.96
2018-09-10T05:07:05.715Z,984.95
2018-09-10T05:08:05.637Z,984.92
2018-09-10T05:09:05.562Z,984.95
2018-09-10T05:10:05.560Z,984.95
2018-09-10T05:11:05.413Z,984.98
2018-09-10T05:12:05.336Z,984.98
2018-09-10T05:13:05.264Z,985.01
2018-09-10T05:14:05.169Z,984.98
2018-09-10T05:15:05.091Z,985.03
2018-09-10T05:16:05.016Z,984.99
2018-09-10T05:17:04.936Z,985.02
2018-09-10T05:18:04.857Z,985.06
2018-09-10T05:19:04.785Z,985.09
2018-09-10T05:20:04.701Z,985.05
2018-09-10T05:21:04.623Z,985.07
2018-09-10T05:22:04.610Z,985.09
2018-09-10T05:23:04.469Z,985.13
2018-09-10T05:24:04.390Z,985.09
2018-09-10T05:25:04.313Z,985.11
2018-09-10T05:26:04.236Z,985.11
2018-09-10T05:27:04.165Z,985.11
2018-09-10T05:28:04.081Z,985.16
2018-09-10T05:29:04.002Z,985.16
2018-09-10T05:30:03.922Z,985.15
2018-09-10T05:31:03.843Z,985.15
2018-09-10T05:32:03.800Z,985.18
2018-09-10T05:33:03.699Z,985.17
2018-09-10T05:34:03.634Z,985.18
2018-09-10T05:35:03.532Z,985.15
2018-09-10T05:36:03.455Z,985.16
2018-09-10T05:37:03.377Z,985.17
2018-09-10T05:38:03.301Z,985.24
2018-09-10T05:39:03.222Z,985.23
2018-09-10T05:40:03.154Z,985.23
2018-09-10T05:41:03.068Z,985.28
2018-09-10T05:42:02.997Z,985.28
2018-09-10T05:43:02.911Z,985.24
2018-09-10T05:44:02.833Z,985.33
2018-09-10T05:45:02.755Z,985.34
2018-09-10T05:46:02.684Z,985.35
2018-09-10T05:47:02.599Z,985.36
2018-09-10T05:48:02.523Z,985.35
2018-09-10T05:49:02.443Z,985.36
2018-09-10T05:50:02.366Z,985.33
2018-09-10T05:51:02.288Z,985.35
2018-09-10T05:52:02.212Z,985.35
2018-09-10T05:53:02.133Z,985.39
2018-09-10T05:54:02.057Z,985.40
2018-09-10T05:55:01.979Z,985.35
2018-09-10T05:56:01.903Z,985.40
2018-09-10T05:57:01.825Z,985.39
2018-09-10T05:58:01.744Z,985.39
2018-09-10T05:59:01.668Z,985.46
2018-09-10T06:00:01.589Z,985.45
2018-09-10T06:01:01.515Z,985.48
2018-09-10T06:02:01.440Z,985.52
2018-09-10T06:03:01.357Z,985.54
2018-09-10T06:04:01.279Z,985.53
2018-09-10T06:05:01.206Z,985.52
2018-09-10T06:06:01.126Z,985.54
2018-09-10T06:07:01.046Z,985.51
2018-09-10T06:08:00.970Z,985.48
2018-09-10T06:09:00.892Z,985.52
2018-09-10T06:10:00.827Z,985.47
2018-09-10T06:11:00.735Z,985.46
2018-09-10T06:12:00.660Z,985.45
2018-09-10T06:13:00.579Z,985.46
2018-09-10T06:14:00.503Z,985.42
2018-09-10T06:15:00.433Z,985.41
2018-09-10T06:16:00.352Z,985.43
2018-09-10T06:17:00.275Z,985.42
2018-09-10T06:18:00.195Z,985.40
2018-09-10T06:19:00.127Z,985.39
2018-09-10T06:20:00.039Z,985.42
2018-09-10T06:20:59.961Z,985.41
2018-09-10T06:21:59.886Z,985.45
2018-09-10T06:22:59.807Z,985.45
2018-09-10T06:23:59.728Z,985.45
2018-09-10T06:24:59.651Z,985.47
2018-09-10T06:25:59.578Z,985.45
2018-09-10T06:26:59.497Z,985.51
2018-09-10T06:27:59.422Z,985.51
2018-09-10T06:28:59.342Z,985.57
2018-09-10T06:29:59.277Z,985.60
2018-09-10T06:30:59.189Z,985.61
2018-09-10T06:31:59.113Z,985.65
2018-09-10T06:32:59.038Z,985.66
2018-09-10T06:33:58.970Z,985.69
2018-09-10T06:34:58.887Z,985.68
2018-09-10T06:35:58.809Z,985.63
2018-09-10T06:36:58.770Z,985.59
2018-09-10T06:37:58.654Z,985.56
2018-09-10T06:38:58.578Z,985.53
2018-09-10T06:39:58.499Z,985.52
2018-09-10T06:40:58.440Z,985.51
2018-09-10T06:41:58.347Z,985.50
2018-09-10T06:42:58.266Z,985.48
2018-09-10T06:43:58.195Z,985.51
2018-09-10T06:44:58.113Z,985.53
2018-09-10T06:45:58.035Z,985.54
2018-09-10T06:46:57.959Z,985.49
2018-09-10T06:47:57.883Z,985.47
2018-09-10T06:48:57.805Z,985.47
2018-09-10T06:49:57.730Z,985.43
2018-09-10T06:50:57.652Z,985.40
2018-09-10T06:51:57.577Z,985.40
2018-09-10T06:52:57.498Z,985.43
2018-09-10T06:53:57.422Z,985.42
2018-09-10T06:54:57.345Z,985.43
2018-09-10T06:55:57.269Z,985.42
2018-09-10T06:56:57.193Z,985.44
2018-09-10T06:57:57.114Z,985.47
2018-09-10T06:58:57.039Z,985.45
2018-09-10T06:59:56.963Z,985.43
2018-09-10T07:00:56.890Z,985.45
2018-09-10T07:01:56.808Z,985.44
2018-09-10T07:02:56.739Z,985.40
2018-09-10T07:03:56.660Z,985.41
2018-09-10T07:04:56.579Z,985.41
2018-09-10T07:05:56.503Z,985.41
2018-09-10T07:06:56.426Z,985.45
2018-09-10T07:07:56.354Z,985.43
2018-09-10T07:08:56.273Z,985.42
2018-09-10T07:09:56.202Z,985.44
2018-09-10T07:10:56.122Z,985.45
2018-09-10T07:11:56.046Z,985.45
2018-09-10T07:12:55.971Z,985.42
2018-09-10T07:13:55.894Z,985.44
2018-09-10T07:14:55.820Z,985.46
2018-09-10T07:15:55.740Z,985.46
2018-09-10T07:16:55.665Z,985.44
2018-09-10T07:17:55.590Z,985.48
2018-09-10T07:18:55.574Z,985.50
2018-09-10T07:19:55.437Z,985.52
2018-09-10T07:20:55.359Z,985.55
2018-09-10T07:21:55.282Z,985.53
2018-09-10T07:22:55.207Z,985.53
2018-09-10T07:23:55.131Z,985.56
2018-09-10T07:24:55.054Z,985.58
2018-09-10T07:25:54.983Z,985.58
2018-09-10T07:26:54.906Z,985.56
2018-09-10T07:27:54.830Z,985.58
2018-09-10T07:28:54.752Z,985.59
2018-09-10T07:29:54.676Z,985.60
2018-09-10T07:30:54.601Z,985.61
2018-09-10T07:31:54.524Z,985.59
2018-09-10T07:32:54.451Z,985.58
2018-09-10T07:33:54.373Z,985.59
2018-09-10T07:34:54.300Z,985.64
2018-09-10T07:35:54.224Z,985.61
2018-09-10T07:36:54.147Z,985.63
2018-09-10T07:37:54.070Z,985.65
2018-09-10T07:38:53.997Z,985.68
2018-09-10T07:39:53.920Z,985.71
2018-09-10T07:40:53.843Z,985.72
2018-09-10T07:41:53.768Z,985.74
2018-09-10T07:42:53.692Z,985.72
2018-09-10T07:43:53.692Z,985.76
2018-09-10T07:44:53.560Z,985.73
2018-09-10T07:45:53.468Z,985.74
2018-09-10T07:48:24.949Z,985.75
2018-09-10T07:49:24.823Z,985.69
2018-09-10T07:51:28.682Z,985.73
2018-09-10T07:52:28.577Z,985.76
2018-09-10T07:54:32.478Z,985.82
2018-09-10T07:55:32.291Z,985.76
2018-09-10T07:57:36.104Z,985.85
2018-09-10T07:58:36.023Z,985.83
2018-09-10T08:00:40.041Z,985.81
2018-09-10T08:01:39.856Z,985.80
2018-09-10T08:03:43.662Z,985.76
2018-09-10T08:04:43.589Z,985.79
2018-09-10T08:05:43.509Z,985.77
2018-09-10T08:06:43.434Z,985.81
2018-09-10T08:07:43.359Z,985.78
2018-09-10T08:08:43.285Z,985.81
2018-09-10T08:09:43.242Z,985.81
2018-09-10T08:10:43.133Z,985.80
2018-09-10T08:11:43.059Z,985.82
2018-09-10T08:12:42.985Z,985.84
2018-09-10T08:13:42.911Z,985.82
2018-09-10T08:14:42.840Z,985.81
2018-09-10T08:15:42.758Z,985.81
2018-09-10T08:16:42.737Z,985.79
2018-09-10T08:17:42.610Z,985.81
2018-09-10T08:18:42.535Z,985.84
2018-09-10T08:19:42.462Z,985.84
2018-09-10T08:20:42.387Z,985.88
2018-09-10T08:21:42.313Z,985.90
2018-09-10T08:22:42.237Z,985.90
2018-09-10T08:23:42.162Z,985.88
2018-09-10T08:24:42.091Z,985.89
2018-09-10T08:25:42.014Z,985.87
2018-09-10T08:26:41.938Z,985.86
2018-09-10T08:27:41.874Z,985.81
2018-09-10T08:28:41.795Z,985.82
2018-09-10T08:29:41.720Z,985.82
2018-09-10T08:30:41.642Z,985.77
2018-09-10T08:31:41.567Z,985.80
2018-09-10T08:32:41.497Z,985.81
2018-09-10T08:33:41.417Z,985.82
2018-09-10T08:34:41.344Z,985.85
2018-09-10T08:35:41.267Z,985.82
2018-09-10T08:36:41.194Z,985.85
2018-09-10T08:37:41.125Z,985.85
2018-09-10T08:38:41.109Z,985.87
2018-09-10T08:39:40.976Z,985.90
2018-09-10T08:40:40.897Z,985.93
2018-09-10T08:41:40.828Z,985.92
2018-09-10T08:42:40.775Z,985.91
2018-09-10T08:43:40.694Z,985.93
2018-09-10T08:44:40.602Z,985.92
2018-09-10T08:45:40.527Z,985.93
2018-09-10T08:46:40.452Z,985.93
2018-09-10T08:47:40.377Z,985.90
2018-09-10T08:48:40.305Z,985.91
2018-09-10T08:49:40.230Z,985.91
2018-09-10T08:50:40.156Z,985.86
2018-09-10T08:51:40.085Z,985.85
2018-09-10T08:52:40.014Z,985.84
2018-09-10T08:53:39.941Z,985.85
2018-09-10T08:54:40.135Z,985.83
2018-09-10T08:55:40.065Z,985.82
2018-09-10T08:56:39.714Z,985.82
2018-09-10T08:57:39.643Z,985.80
2018-09-10T08:58:39.566Z,985.82
2018-09-10T08:59:39.489Z,985.80
2018-09-10T09:00:39.424Z,985.78
2018-09-10T09:01:39.349Z,985.79
2018-09-10T09:02:39.271Z,985.76
2018-09-10T09:03:39.208Z,985.72
2018-09-10T09:04:39.129Z,985.71
2018-09-10T09:05:39.053Z,985.69
2018-09-10T09:06:38.977Z,985.65
2018-09-10T09:07:38.907Z,985.64
2018-09-10T09:08:38.831Z,985.63
2018-09-10T09:09:38.759Z,985.66
2018-09-10T09:10:38.698Z,985.61
2018-09-10T09:11:38.611Z,985.60
2018-09-10T09:12:38.541Z,985.59
2018-09-10T09:13:38.467Z,985.63
2018-09-10T09:14:38.388Z,985.56
2018-09-10T09:15:38.321Z,985.56
2018-09-10T09:16:38.243Z,985.58
2018-09-10T09:17:38.172Z,985.55
2018-09-10T09:18:38.124Z,985.52
2018-09-10T09:19:38.027Z,985.53
2018-09-10T09:20:37.955Z,985.51
2018-09-10T09:21:37.877Z,985.54
2018-09-10T09:22:37.803Z,985.59
2018-09-10T09:23:37.770Z,985.62
2018-09-10T09:24:37.657Z,985.66
2018-09-10T09:25:37.592Z,985.65
2018-09-10T09:26:37.514Z,985.71
2018-09-10T09:27:37.460Z,985.70
2018-09-10T09:28:37.367Z,985.68
2018-09-10T09:29:37.344Z,985.71
2018-09-10T09:30:37.220Z,985.72
2018-09-10T09:31:37.149Z,985.70
2018-09-10T09:32:37.080Z,985.71
2018-09-10T09:33:37.006Z,985.68
2018-09-10T09:34:36.934Z,985.71
2018-09-10T09:35:36.859Z,985.71
2018-09-10T09:36:36.786Z,985.72
2018-09-10T09:37:36.712Z,985.75
2018-09-10T09:38:36.638Z,985.74
2018-09-10T09:39:36.565Z,985.73
2018-09-10T09:40:36.496Z,985.70
2018-09-10T09:41:36.422Z,985.68
2018-09-10T09:42:36.348Z,985.68
2018-09-10T09:43:36.282Z,985.65
2018-09-10T09:44:36.204Z,985.61
2018-09-10T09:45:36.130Z,985.59
2018-09-10T09:46:36.063Z,985.62
2018-09-10T09:47:35.987Z,985.57
2018-09-10T09:48:35.919Z,985.58
2018-09-10T09:49:35.847Z,985.59
2018-09-10T09:50:35.771Z,985.59
2018-09-10T09:51:35.697Z,985.59
2018-09-10T09:52:35.623Z,985.59
2018-09-10T09:53:35.553Z,985.61
2018-09-10T09:54:35.486Z,985.58
2018-09-10T09:55:35.408Z,985.59
2018-09-10T09:56:35.368Z,985.57
2018-09-10T09:57:35.265Z,985.58
2018-09-10T09:58:35.195Z,985.57
2018-09-10T09:59:35.150Z,985.54
2018-09-10T10:00:35.046Z,985.54
2018-09-10T10:01:34.981Z,985.56
2018-09-10T10:02:34.901Z,985.54
2018-09-10T10:03:34.836Z,985.52
2018-09-10T10:04:34.827Z,985.55
2018-09-10T10:05:34.690Z,985.54
2018-09-10T10:06:34.616Z,985.52
2018-09-10T10:07:34.541Z,985.51
2018-09-10T10:08:34.478Z,985.49
2018-09-10T10:09:34.399Z,985.49
2018-09-10T10:10:34.379Z,985.51
2018-09-10T10:11:34.299Z,985.49
2018-09-10T10:12:34.238Z,985.48
2018-09-10T10:13:34.111Z,985.44
2018-09-10T10:14:34.091Z,985.48
2018-09-10T10:15:33.968Z,985.48
2018-09-10T10:16:34.027Z,985.52
2018-09-10T10:17:33.892Z,985.51
2018-09-10T10:18:33.753Z,985.49
2018-09-10T10:19:33.681Z,985.51
2018-09-10T10:20:33.619Z,985.49
2018-09-10T10:21:33.557Z,985.48
2018-09-10T10:22:33.467Z,985.48
2018-09-10T10:23:33.396Z,985.46
2018-09-10T10:24:33.333Z,985.48
2018-09-10T10:25:33.265Z,985.39
2018-09-10T10:26:33.182Z,985.35
2018-09-10T10:27:33.112Z,985.38
2018-09-10T10:28:33.040Z,985.33
2018-09-10T10:29:32.974Z,985.28
2018-09-10T10:30:32.902Z,985.28
2018-09-10T10:31:32.827Z,985.25
2018-09-10T10:32:32.762Z,985.19
2018-09-10T10:33:32.701Z,985.20
2018-09-10T10:34:32.616Z,985.21
2018-09-10T10:35:32.548Z,985.16
2018-09-10T10:36:32.473Z,985.14
2018-09-10T10:37:32.408Z,985.18
2018-09-10T10:38:32.329Z,985.18
2018-09-10T10:39:32.259Z,985.15
2018-09-10T10:40:32.188Z,985.20
2018-09-10T10:41:32.122Z,985.19
2018-09-10T10:42:32.050Z,985.15
2018-09-10T10:43:31.978Z,985.17
2018-09-10T10:44:31.908Z,985.13
2018-09-10T10:45:31.842Z,985.16
2018-09-10T10:46:31.765Z,985.12
2018-09-10T10:47:31.799Z,985.12
2018-09-10T10:48:31.626Z,985.11
2018-09-10T10:49:31.565Z,985.16
2018-09-10T10:50:31.484Z,985.16
2018-09-10T10:51:31.416Z,985.16
2018-09-10T10:52:31.351Z,985.17
2018-09-10T10:53:31.285Z,985.15
2018-09-10T10:54:31.207Z,985.14
2018-09-10T10:55:31.150Z,985.17
2018-09-10T10:56:31.066Z,985.15
2018-09-10T10:57:30.998Z,985.10
2018-09-10T10:58:30.931Z,985.14
2018-09-10T10:59:30.859Z,985.09
2018-09-10T11:00:30.788Z,985.07
2018-09-10T11:01:30.721Z,985.06
2018-09-10T11:02:30.650Z,985.07
2018-09-10T11:03:30.579Z,985.11
2018-09-10T11:04:30.509Z,985.05
2018-09-10T11:05:30.443Z,985.09
2018-09-10T11:06:30.374Z,985.11
2018-09-10T11:07:30.303Z,985.10
2018-09-10T11:08:30.244Z,985.10
2018-09-10T11:09:30.166Z,985.11
2018-09-10T11:10:30.101Z,985.17
2018-09-10T11:11:30.031Z,985.09
2018-09-10T11:12:29.956Z,985.14
2018-09-10T11:13:29.888Z,985.13
2018-09-10T11:14:29.819Z,985.02
2018-09-10T11:15:29.751Z,984.97
2018-09-10T11:16:29.732Z,984.98
2018-09-10T11:17:29.614Z,984.94
2018-09-10T11:18:29.545Z,984.95
2018-09-10T11:19:29.477Z,984.97
2018-09-10T11:20:29.418Z,984.95
2018-09-10T11:21:29.344Z,984.94
2018-09-10T11:22:29.277Z,984.94
2018-09-10T11:23:29.210Z,984.99
2018-09-10T11:24:29.152Z,984.97
2018-09-10T11:25:29.076Z,984.88
2018-09-10T11:26:28.999Z,984.97
2018-09-10T11:27:28.935Z,984.94
2018-09-10T11:28:28.865Z,984.95
2018-09-10T11:29:28.802Z,984.89
2018-09-10T11:30:28.726Z,984.94
2018-09-10T11:31:28.659Z,984.87
2018-09-10T11:32:28.591Z,984.87
2018-09-10T11:33:28.526Z,984.83
2018-09-10T11:34:28.457Z,984.83
2018-09-10T11:35:28.392Z,984.81
2018-09-10T11:36:28.319Z,984.80
2018-09-10T11:37:28.256Z,984.81
2018-09-10T11:38:28.188Z,984.70
2018-09-10T11:39:28.115Z,984.73
2018-09-10T11:40:28.055Z,984.76
2018-09-10T11:41:27.991Z,984.73
2018-09-10T11:42:27.913Z,984.75
2018-09-10T11:43:27.843Z,984.80
2018-09-10T11:44:27.780Z,984.76
2018-09-10T11:45:27.715Z,984.77
2018-09-10T11:46:27.684Z,984.79
2018-09-10T11:47:27.589Z,984.78
2018-09-10T11:48:27.508Z,984.80
2018-09-10T11:49:27.441Z,984.82
2018-09-10T11:50:27.381Z,984.95
2018-09-10T11:51:27.312Z,984.82
2018-09-10T11:52:27.243Z,984.82
2018-09-10T11:53:27.181Z,984.86
2018-09-10T11:54:27.116Z,984.83
2018-09-10T11:55:27.055Z,984.82
2018-09-10T11:56:26.979Z,984.85
2018-09-10T11:57:26.918Z,984.88
2018-09-10T11:58:26.852Z,984.91
2018-09-10T11:59:26.784Z,984.87
2018-09-10T12:00:26.721Z,984.90
2018-09-10T12:01:26.659Z,985.02
2018-09-10T12:02:26.595Z,984.99
2018-09-10T12:03:26.524Z,984.99
2018-09-10T12:04:26.461Z,984.96
2018-09-10T12:05:26.397Z,984.89
2018-09-10T12:06:26.353Z,984.92
2018-09-10T12:07:26.268Z,984.93
2018-09-10T12:08:26.258Z,984.92
2018-09-10T12:09:26.142Z,984.87
2018-09-10T12:10:26.084Z,984.91
2018-09-10T12:11:26.028Z,984.91
2018-09-10T12:12:25.953Z,984.98
2018-09-10T12:13:25.900Z,984.93
2018-09-10T12:14:25.819Z,984.92
2018-09-10T12:15:25.756Z,984.93
2018-09-10T12:16:25.696Z,984.90
2018-09-10T12:17:25.633Z,984.88
2018-09-10T12:18:25.565Z,984.90
2018-09-10T12:19:25.513Z,984.88
2018-09-10T12:20:25.445Z,984.83
2018-09-10T12:21:25.417Z,984.82
2018-09-10T12:22:25.328Z,984.81
2018-09-10T12:23:25.258Z,984.84
2018-09-10T12:24:25.189Z,984.78
2018-09-10T12:25:25.138Z,984.81
2018-09-10T12:26:25.070Z,984.78
2018-09-10T12:27:25.001Z,984.84
2018-09-10T12:28:24.938Z,984.84
2018-09-10T12:29:24.877Z,984.83
2018-09-10T12:30:24.814Z,984.87
2018-09-10T12:31:24.753Z,984.86
2018-09-10T12:32:24.759Z,984.97
2018-09-10T12:33:24.626Z,984.87
2018-09-10T12:34:24.564Z,984.89
2018-09-10T12:35:24.503Z,984.92